sensor_id;sensor_type;location;lat;lon;timestamp;P1;durP1;ratioP1;P2;durP2;ratioP2
58242;SDS011;50118;53.232;8.252;2022-08-30T00:02:37;5.60;;;4.07;;
58242;SDS011;50118;53.232;8.252;2022-08-30T00:05:03;4.93;;;3.70;;
58242;SDS011;50118;53.232;8.252;2022-08-30T00:07:34;5.30;;;3.72;;
58242;SDS011;50118;53.232;8.252;2022-08-30T00:10:00;4.72;;;3.88;;
58242;SDS011;50118;53.232;8.252;2022-08-30T00:12:26;5.57;;;4.00;;
58242;SDS011;50118;53.232;8.252;2022-08-30T00:14:52;4.90;;;3.60;;
58242;SDS011;50118;53.232;8.252;2022-08-30T00:17:18;5.20;;;3.90;;
58242;SDS011;50118;53.232;8.252;2022-08-30T00:19:44;4.90;;;3.60;;
58242;SDS011;50118;53.232;8.252;2022-08-30T00:22:09;4.65;;;3.40;;
58242;SDS011;50118;53.232;8.252;2022-08-30T00:24:35;4.80;;;3.05;;
58242;SDS011;50118;53.232;8.252;2022-08-30T00:30:04;5.65;;;3.70;;
58242;SDS011;50118;53.232;8.252;2022-08-30T00:32:50;4.70;;;3.42;;
58242;SDS011;50118;53.232;8.252;2022-08-30T00:37:49;4.95;;;3.63;;
58242;SDS011;50118;53.232;8.252;2022-08-30T00:40:15;5.22;;;3.80;;
58242;SDS011;50118;53.232;8.252;2022-08-30T00:42:42;5.43;;;4.28;;
58242;SDS011;50118;53.232;8.252;2022-08-30T00:45:18;7.45;;;4.00;;
58242;SDS011;50118;53.232;8.252;2022-08-30T00:47:51;5.82;;;3.58;;
58242;SDS011;50118;53.232;8.252;2022-08-30T00:50:18;5.93;;;4.22;;
58242;SDS011;50118;53.232;8.252;2022-08-30T00:52:46;4.90;;;4.28;;
58242;SDS011;50118;53.232;8.252;2022-08-30T00:55:15;5.20;;;3.80;;
58242;SDS011;50118;53.232;8.252;2022-08-30T00:57:43;4.88;;;3.60;;
58242;SDS011;50118;53.232;8.252;2022-08-30T01:00:11;5.50;;;3.50;;
58242;SDS011;50118;53.232;8.252;2022-08-30T01:02:37;5.03;;;3.72;;
58242;SDS011;50118;53.232;8.252;2022-08-30T01:05:03;4.47;;;3.20;;
58242;SDS011;50118;53.232;8.252;2022-08-30T01:07:31;5.88;;;4.07;;
58242;SDS011;50118;53.232;8.252;2022-08-30T01:09:57;7.00;;;4.18;;
58242;SDS011;50118;53.232;8.252;2022-08-30T01:12:22;5.63;;;4.47;;
58242;SDS011;50118;53.232;8.252;2022-08-30T01:14:48;6.18;;;5.00;;
58242;SDS011;50118;53.232;8.252;2022-08-30T01:17:14;5.65;;;4.78;;
58242;SDS011;50118;53.232;8.252;2022-08-30T01:25:13;4.82;;;4.20;;
58242;SDS011;50118;53.232;8.252;2022-08-30T01:27:47;4.85;;;4.05;;
58242;SDS011;50118;53.232;8.252;2022-08-30T01:30:16;4.82;;;3.60;;
58242;SDS011;50118;53.232;8.252;2022-08-30T01:32:43;4.88;;;3.80;;
58242;SDS011;50118;53.232;8.252;2022-08-30T01:35:11;5.32;;;3.80;;
58242;SDS011;50118;53.232;8.252;2022-08-30T01:37:39;4.30;;;3.53;;
58242;SDS011;50118;53.232;8.252;2022-08-30T01:40:06;4.10;;;3.25;;
58242;SDS011;50118;53.232;8.252;2022-08-30T01:42:32;4.85;;;3.80;;
58242;SDS011;50118;53.232;8.252;2022-08-30T01:44:58;5.68;;;3.80;;
58242;SDS011;50118;53.232;8.252;2022-08-30T01:47:23;5.93;;;3.40;;
58242;SDS011;50118;53.232;8.252;2022-08-30T01:49:49;4.63;;;3.47;;
58242;SDS011;50118;53.232;8.252;2022-08-30T01:52:16;4.55;;;3.47;;
58242;SDS011;50118;53.232;8.252;2022-08-30T01:54:42;5.40;;;3.90;;
58242;SDS011;50118;53.232;8.252;2022-08-30T01:57:10;4.80;;;3.50;;
58242;SDS011;50118;53.232;8.252;2022-08-30T01:59:38;4.22;;;3.28;;
58242;SDS011;50118;53.232;8.252;2022-08-30T02:02:05;4.55;;;3.38;;
58242;SDS011;50118;53.232;8.252;2022-08-30T02:04:31;4.55;;;3.40;;
58242;SDS011;50118;53.232;8.252;2022-08-30T02:06:56;5.75;;;3.95;;
58242;SDS011;50118;53.232;8.252;2022-08-30T02:09:22;6.22;;;4.20;;
58242;SDS011;50118;53.232;8.252;2022-08-30T02:11:47;5.20;;;4.30;;
58242;SDS011;50118;53.232;8.252;2022-08-30T02:14:13;5.65;;;4.50;;
58242;SDS011;50118;53.232;8.252;2022-08-30T02:16:39;5.72;;;4.30;;
58242;SDS011;50118;53.232;8.252;2022-08-30T02:19:05;5.22;;;4.10;;
58242;SDS011;50118;53.232;8.252;2022-08-30T02:21:31;5.93;;;4.20;;
58242;SDS011;50118;53.232;8.252;2022-08-30T02:23:57;5.75;;;4.30;;
58242;SDS011;50118;53.232;8.252;2022-08-30T02:26:22;5.88;;;4.30;;
58242;SDS011;50118;53.232;8.252;2022-08-30T02:28:50;5.80;;;4.30;;
58242;SDS011;50118;53.232;8.252;2022-08-30T02:31:17;6.15;;;4.32;;
58242;SDS011;50118;53.232;8.252;2022-08-30T02:33:44;5.30;;;4.00;;
58242;SDS011;50118;53.232;8.252;2022-08-30T02:36:09;6.38;;;4.60;;
58242;SDS011;50118;53.232;8.252;2022-08-30T02:38:35;6.55;;;4.50;;
58242;SDS011;50118;53.232;8.252;2022-08-30T02:41:01;6.80;;;4.25;;
58242;SDS011;50118;53.232;8.252;2022-08-30T02:43:26;5.38;;;4.18;;
58242;SDS011;50118;53.232;8.252;2022-08-30T02:45:52;4.90;;;3.67;;
58242;SDS011;50118;53.232;8.252;2022-08-30T02:48:18;4.28;;;3.60;;
58242;SDS011;50118;53.232;8.252;2022-08-30T02:50:44;5.25;;;3.88;;
58242;SDS011;50118;53.232;8.252;2022-08-30T02:53:12;5.28;;;3.92;;
58242;SDS011;50118;53.232;8.252;2022-08-30T02:55:38;5.45;;;3.72;;
58242;SDS011;50118;53.232;8.252;2022-08-30T02:58:03;5.38;;;3.55;;
58242;SDS011;50118;53.232;8.252;2022-08-30T03:00:29;5.25;;;3.80;;
58242;SDS011;50118;53.232;8.252;2022-08-30T03:02:55;4.55;;;3.55;;
58242;SDS011;50118;53.232;8.252;2022-08-30T03:05:21;5.15;;;3.83;;
58242;SDS011;50118;53.232;8.252;2022-08-30T03:07:47;5.90;;;3.80;;
58242;SDS011;50118;53.232;8.252;2022-08-30T03:10:13;4.30;;;3.45;;
58242;SDS011;50118;53.232;8.252;2022-08-30T03:12:40;4.30;;;3.42;;
58242;SDS011;50118;53.232;8.252;2022-08-30T03:15:06;5.47;;;3.83;;
58242;SDS011;50118;53.232;8.252;2022-08-30T03:17:32;4.65;;;3.55;;
58242;SDS011;50118;53.232;8.252;2022-08-30T03:19:58;4.78;;;3.53;;
58242;SDS011;50118;53.232;8.252;2022-08-30T03:22:26;5.38;;;3.95;;
58242;SDS011;50118;53.232;8.252;2022-08-30T03:24:52;6.03;;;3.63;;
58242;SDS011;50118;53.232;8.252;2022-08-30T03:27:17;7.85;;;4.07;;
58242;SDS011;50118;53.232;8.252;2022-08-30T03:29:43;4.88;;;3.90;;
58242;SDS011;50118;53.232;8.252;2022-08-30T03:32:08;4.57;;;3.80;;
58242;SDS011;50118;53.232;8.252;2022-08-30T03:34:33;4.93;;;3.80;;
58242;SDS011;50118;53.232;8.252;2022-08-30T03:36:59;4.90;;;4.00;;
58242;SDS011;50118;53.232;8.252;2022-08-30T03:39:25;4.95;;;3.92;;
58242;SDS011;50118;53.232;8.252;2022-08-30T03:41:51;6.35;;;4.68;;
58242;SDS011;50118;53.232;8.252;2022-08-30T03:44:18;8.25;;;4.97;;
58242;SDS011;50118;53.232;8.252;2022-08-30T03:46:45;5.28;;;4.43;;
58242;SDS011;50118;53.232;8.252;2022-08-30T03:49:11;6.95;;;4.47;;
58242;SDS011;50118;53.232;8.252;2022-08-30T03:51:37;6.35;;;4.50;;
58242;SDS011;50118;53.232;8.252;2022-08-30T03:54:02;7.63;;;5.03;;
58242;SDS011;50118;53.232;8.252;2022-08-30T03:56:28;5.30;;;4.38;;
58242;SDS011;50118;53.232;8.252;2022-08-30T03:58:53;6.47;;;4.63;;
58242;SDS011;50118;53.232;8.252;2022-08-30T04:01:19;5.63;;;4.35;;
58242;SDS011;50118;53.232;8.252;2022-08-30T04:03:44;5.53;;;4.35;;
58242;SDS011;50118;53.232;8.252;2022-08-30T04:06:10;6.72;;;4.90;;
58242;SDS011;50118;53.232;8.252;2022-08-30T04:08:35;6.35;;;5.20;;
58242;SDS011;50118;53.232;8.252;2022-08-30T04:11:03;6.88;;;4.63;;
58242;SDS011;50118;53.232;8.252;2022-08-30T04:13:28;6.68;;;4.28;;
58242;SDS011;50118;53.232;8.252;2022-08-30T04:15:54;6.25;;;4.43;;
58242;SDS011;50118;53.232;8.252;2022-08-30T04:18:20;5.90;;;4.60;;
58242;SDS011;50118;53.232;8.252;2022-08-30T04:20:46;6.13;;;4.68;;
58242;SDS011;50118;53.232;8.252;2022-08-30T04:23:12;6.97;;;4.72;;
58242;SDS011;50118;53.232;8.252;2022-08-30T04:25:38;8.60;;;5.55;;
58242;SDS011;50118;53.232;8.252;2022-08-30T04:28:05;8.00;;;5.38;;
58242;SDS011;50118;53.232;8.252;2022-08-30T04:30:31;7.88;;;4.75;;
58242;SDS011;50118;53.232;8.252;2022-08-30T04:32:58;6.95;;;5.05;;
58242;SDS011;50118;53.232;8.252;2022-08-30T04:35:23;7.47;;;4.88;;
58242;SDS011;50118;53.232;8.252;2022-08-30T04:37:49;7.00;;;5.05;;
58242;SDS011;50118;53.232;8.252;2022-08-30T04:40:15;6.75;;;5.30;;
58242;SDS011;50118;53.232;8.252;2022-08-30T04:42:41;6.45;;;4.88;;
58242;SDS011;50118;53.232;8.252;2022-08-30T04:45:09;7.35;;;5.68;;
58242;SDS011;50118;53.232;8.252;2022-08-30T04:47:36;7.07;;;5.63;;
58242;SDS011;50118;53.232;8.252;2022-08-30T04:50:03;7.43;;;5.70;;
58242;SDS011;50118;53.232;8.252;2022-08-30T04:52:29;6.50;;;5.10;;
58242;SDS011;50118;53.232;8.252;2022-08-30T04:54:55;6.40;;;5.18;;
58242;SDS011;50118;53.232;8.252;2022-08-30T04:57:21;7.95;;;5.30;;
58242;SDS011;50118;53.232;8.252;2022-08-30T04:59:47;6.72;;;5.22;;
58242;SDS011;50118;53.232;8.252;2022-08-30T05:02:13;7.13;;;5.05;;
58242;SDS011;50118;53.232;8.252;2022-08-30T05:04:38;7.28;;;5.20;;
58242;SDS011;50118;53.232;8.252;2022-08-30T05:07:26;8.35;;;5.93;;
58242;SDS011;50118;53.232;8.252;2022-08-30T05:09:52;9.50;;;5.43;;
58242;SDS011;50118;53.232;8.252;2022-08-30T05:12:17;14.80;;;6.22;;
58242;SDS011;50118;53.232;8.252;2022-08-30T05:14:43;9.38;;;6.10;;
58242;SDS011;50118;53.232;8.252;2022-08-30T05:17:08;8.57;;;5.20;;
58242;SDS011;50118;53.232;8.252;2022-08-30T05:19:34;7.40;;;5.47;;
58242;SDS011;50118;53.232;8.252;2022-08-30T05:21:59;8.43;;;6.22;;
58242;SDS011;50118;53.232;8.252;2022-08-30T05:24:25;8.48;;;5.70;;
58242;SDS011;50118;53.232;8.252;2022-08-30T05:26:50;9.13;;;6.40;;
58242;SDS011;50118;53.232;8.252;2022-08-30T05:29:16;8.30;;;6.18;;
58242;SDS011;50118;53.232;8.252;2022-08-30T05:31:42;7.50;;;5.68;;
58242;SDS011;50118;53.232;8.252;2022-08-30T05:34:08;8.05;;;6.13;;
58242;SDS011;50118;53.232;8.252;2022-08-30T05:36:35;8.75;;;5.57;;
58242;SDS011;50118;53.232;8.252;2022-08-30T05:41:38;6.82;;;5.25;;
58242;SDS011;50118;53.232;8.252;2022-08-30T05:44:04;7.45;;;5.15;;
58242;SDS011;50118;53.232;8.252;2022-08-30T05:46:33;7.32;;;6.05;;
58242;SDS011;50118;53.232;8.252;2022-08-30T05:49:05;6.82;;;5.88;;
58242;SDS011;50118;53.232;8.252;2022-08-30T05:51:32;10.23;;;5.93;;
58242;SDS011;50118;53.232;8.252;2022-08-30T05:54:00;8.00;;;5.90;;
58242;SDS011;50118;53.232;8.252;2022-08-30T05:56:28;6.95;;;5.30;;
58242;SDS011;50118;53.232;8.252;2022-08-30T05:58:56;8.15;;;5.28;;
58242;SDS011;50118;53.232;8.252;2022-08-30T06:03:51;7.90;;;5.50;;
58242;SDS011;50118;53.232;8.252;2022-08-30T06:06:18;7.95;;;5.25;;
58242;SDS011;50118;53.232;8.252;2022-08-30T06:08:47;7.43;;;5.20;;
58242;SDS011;50118;53.232;8.252;2022-08-30T06:11:13;6.15;;;4.40;;
58242;SDS011;50118;53.232;8.252;2022-08-30T06:13:50;6.88;;;4.85;;
58242;SDS011;50118;53.232;8.252;2022-08-30T06:16:19;8.77;;;5.20;;
58242;SDS011;50118;53.232;8.252;2022-08-30T06:18:47;60.05;;;7.78;;
58242;SDS011;50118;53.232;8.252;2022-08-30T06:21:16;9.05;;;4.57;;
58242;SDS011;50118;53.232;8.252;2022-08-30T06:24:01;10.25;;;4.10;;
58242;SDS011;50118;53.232;8.252;2022-08-30T06:26:29;10.60;;;4.32;;
58242;SDS011;50118;53.232;8.252;2022-08-30T06:29:06;6.90;;;3.92;;
58242;SDS011;50118;53.232;8.252;2022-08-30T06:31:33;10.27;;;4.38;;
58242;SDS011;50118;53.232;8.252;2022-08-30T06:33:59;5.50;;;4.10;;
58242;SDS011;50118;53.232;8.252;2022-08-30T06:36:25;8.50;;;3.90;;
58242;SDS011;50118;53.232;8.252;2022-08-30T06:38:52;5.32;;;3.47;;
58242;SDS011;50118;53.232;8.252;2022-08-30T06:41:20;4.88;;;3.70;;
58242;SDS011;50118;53.232;8.252;2022-08-30T06:44:12;6.82;;;3.60;;
58242;SDS011;50118;53.232;8.252;2022-08-30T06:46:38;6.45;;;3.35;;
58242;SDS011;50118;53.232;8.252;2022-08-30T06:49:04;6.68;;;3.42;;
58242;SDS011;50118;53.232;8.252;2022-08-30T06:51:32;5.93;;;3.70;;
58242;SDS011;50118;53.232;8.252;2022-08-30T06:54:00;6.18;;;3.30;;
58242;SDS011;50118;53.232;8.252;2022-08-30T06:56:35;5.63;;;3.03;;
58242;SDS011;50118;53.232;8.252;2022-08-30T06:59:01;6.43;;;3.45;;
58242;SDS011;50118;53.232;8.252;2022-08-30T07:01:28;7.53;;;3.78;;
58242;SDS011;50118;53.232;8.252;2022-08-30T07:03:54;5.85;;;3.30;;
58242;SDS011;50118;53.232;8.252;2022-08-30T07:06:20;7.00;;;3.40;;
58242;SDS011;50118;53.232;8.252;2022-08-30T07:08:48;4.45;;;3.00;;
58242;SDS011;50118;53.232;8.252;2022-08-30T07:11:23;6.20;;;3.42;;
58242;SDS011;50118;53.232;8.252;2022-08-30T07:13:52;4.38;;;3.10;;
58242;SDS011;50118;53.232;8.252;2022-08-30T07:16:18;5.28;;;3.38;;
58242;SDS011;50118;53.232;8.252;2022-08-30T07:18:44;5.22;;;3.17;;
58242;SDS011;50118;53.232;8.252;2022-08-30T07:21:20;4.72;;;2.80;;
58242;SDS011;50118;53.232;8.252;2022-08-30T07:23:55;7.95;;;3.10;;
58242;SDS011;50118;53.232;8.252;2022-08-30T07:26:29;5.50;;;3.10;;
58242;SDS011;50118;53.232;8.252;2022-08-30T07:28:58;5.30;;;3.10;;
58242;SDS011;50118;53.232;8.252;2022-08-30T07:31:23;3.83;;;2.80;;
58242;SDS011;50118;53.232;8.252;2022-08-30T07:33:49;9.70;;;2.95;;
58242;SDS011;50118;53.232;8.252;2022-08-30T07:36:16;6.05;;;2.80;;
58242;SDS011;50118;53.232;8.252;2022-08-30T07:38:42;5.25;;;2.60;;
58242;SDS011;50118;53.232;8.252;2022-08-30T07:41:25;5.55;;;2.38;;
58242;SDS011;50118;53.232;8.252;2022-08-30T07:43:53;5.85;;;2.47;;
58242;SDS011;50118;53.232;8.252;2022-08-30T07:46:20;5.72;;;2.70;;
58242;SDS011;50118;53.232;8.252;2022-08-30T07:48:45;6.55;;;2.50;;
58242;SDS011;50118;53.232;8.252;2022-08-30T07:51:12;3.65;;;2.28;;
58242;SDS011;50118;53.232;8.252;2022-08-30T07:53:40;4.22;;;2.40;;
58242;SDS011;50118;53.232;8.252;2022-08-30T07:56:06;5.45;;;2.20;;
58242;SDS011;50118;53.232;8.252;2022-08-30T07:58:32;4.18;;;2.13;;
58242;SDS011;50118;53.232;8.252;2022-08-30T08:00:59;4.60;;;2.20;;
58242;SDS011;50118;53.232;8.252;2022-08-30T08:03:26;4.65;;;2.08;;
58242;SDS011;50118;53.232;8.252;2022-08-30T08:05:52;3.78;;;2.20;;
58242;SDS011;50118;53.232;8.252;2022-08-30T08:08:21;5.22;;;2.13;;
58242;SDS011;50118;53.232;8.252;2022-08-30T08:10:47;4.15;;;2.05;;
58242;SDS011;50118;53.232;8.252;2022-08-30T08:13:13;4.65;;;2.17;;
58242;SDS011;50118;53.232;8.252;2022-08-30T08:15:49;4.60;;;2.20;;
58242;SDS011;50118;53.232;8.252;2022-08-30T08:18:18;3.10;;;2.00;;
58242;SDS011;50118;53.232;8.252;2022-08-30T08:20:44;4.13;;;1.80;;
58242;SDS011;50118;53.232;8.252;2022-08-30T08:23:10;6.30;;;2.28;;
58242;SDS011;50118;53.232;8.252;2022-08-30T08:26:13;3.65;;;1.77;;
58242;SDS011;50118;53.232;8.252;2022-08-30T08:28:39;3.35;;;1.70;;
58242;SDS011;50118;53.232;8.252;2022-08-30T08:38:07;5.07;;;1.70;;
58242;SDS011;50118;53.232;8.252;2022-08-30T08:50:26;2.47;;;1.48;;
58242;SDS011;50118;53.232;8.252;2022-08-30T09:07:16;3.47;;;1.52;;
58242;SDS011;50118;53.232;8.252;2022-08-30T09:10:35;3.85;;;1.40;;
58242;SDS011;50118;53.232;8.252;2022-08-30T09:17:07;2.90;;;1.30;;
58242;SDS011;50118;53.232;8.252;2022-08-30T09:20:28;2.38;;;1.40;;
58242;SDS011;50118;53.232;8.252;2022-08-30T09:22:56;2.30;;;1.60;;
58242;SDS011;50118;53.232;8.252;2022-08-30T09:25:27;2.03;;;1.30;;
58242;SDS011;50118;53.232;8.252;2022-08-30T09:31:32;2.78;;;1.20;;
58242;SDS011;50118;53.232;8.252;2022-08-30T09:34:15;4.10;;;1.40;;
58242;SDS011;50118;53.232;8.252;2022-08-30T09:36:43;2.72;;;1.30;;
58242;SDS011;50118;53.232;8.252;2022-08-30T09:39:14;2.03;;;1.42;;
58242;SDS011;50118;53.232;8.252;2022-08-30T09:41:50;3.78;;;1.40;;
58242;SDS011;50118;53.232;8.252;2022-08-30T09:44:26;2.10;;;1.25;;
58242;SDS011;50118;53.232;8.252;2022-08-30T09:46:58;4.78;;;2.10;;
58242;SDS011;50118;53.232;8.252;2022-08-30T09:49:29;2.83;;;1.40;;
58242;SDS011;50118;53.232;8.252;2022-08-30T10:24:35;2.85;;;1.23;;
58242;SDS011;50118;53.232;8.252;2022-08-30T10:27:15;2.13;;;1.30;;
58242;SDS011;50118;53.232;8.252;2022-08-30T10:32:47;2.92;;;1.20;;
58242;SDS011;50118;53.232;8.252;2022-08-30T10:38:03;2.85;;;1.30;;
58242;SDS011;50118;53.232;8.252;2022-08-30T10:40:35;3.22;;;1.30;;
58242;SDS011;50118;53.232;8.252;2022-08-30T10:43:22;2.00;;;1.48;;
58242;SDS011;50118;53.232;8.252;2022-08-30T10:45:56;5.72;;;1.92;;
58242;SDS011;50118;53.232;8.252;2022-08-30T10:48:28;3.13;;;1.30;;
58242;SDS011;50118;53.232;8.252;2022-08-30T10:51:01;2.95;;;1.30;;
58242;SDS011;50118;53.232;8.252;2022-08-30T10:53:41;3.25;;;1.20;;
58242;SDS011;50118;53.232;8.252;2022-08-30T10:56:15;3.63;;;1.52;;
58242;SDS011;50118;53.232;8.252;2022-08-30T10:58:45;2.33;;;1.30;;
58242;SDS011;50118;53.232;8.252;2022-08-30T11:08:05;2.28;;;1.27;;
58242;SDS011;50118;53.232;8.252;2022-08-30T11:11:00;2.85;;;1.48;;
58242;SDS011;50118;53.232;8.252;2022-08-30T11:13:59;2.67;;;1.20;;
58242;SDS011;50118;53.232;8.252;2022-08-30T11:17:01;2.30;;;1.60;;
58242;SDS011;50118;53.232;8.252;2022-08-30T11:19:45;2.55;;;1.08;;
58242;SDS011;50118;53.232;8.252;2022-08-30T11:22:12;2.90;;;1.23;;
58242;SDS011;50118;53.232;8.252;2022-08-30T11:27:52;1.85;;;1.30;;
58242;SDS011;50118;53.232;8.252;2022-08-30T11:35:54;1.77;;;1.30;;
58242;SDS011;50118;53.232;8.252;2022-08-30T12:02:38;2.10;;;1.40;;
58242;SDS011;50118;53.232;8.252;2022-08-30T12:10:51;1.80;;;1.20;;
58242;SDS011;50118;53.232;8.252;2022-08-30T12:15:59;3.75;;;1.42;;
58242;SDS011;50118;53.232;8.252;2022-08-30T12:21:14;3.13;;;1.30;;
58242;SDS011;50118;53.232;8.252;2022-08-30T12:24:02;2.90;;;1.25;;
58242;SDS011;50118;53.232;8.252;2022-08-30T12:26:43;1.63;;;1.10;;
58242;SDS011;50118;53.232;8.252;2022-08-30T12:39:26;3.97;;;1.30;;
58242;SDS011;50118;53.232;8.252;2022-08-30T12:41:55;1.67;;;1.10;;
58242;SDS011;50118;53.232;8.252;2022-08-30T12:44:34;1.50;;;1.13;;
58242;SDS011;50118;53.232;8.252;2022-08-30T12:47:01;3.42;;;1.30;;
58242;SDS011;50118;53.232;8.252;2022-08-30T12:49:31;1.45;;;1.08;;
58242;SDS011;50118;53.232;8.252;2022-08-30T12:52:17;1.15;;;0.90;;
58242;SDS011;50118;53.232;8.252;2022-08-30T12:54:50;1.80;;;1.20;;
58242;SDS011;50118;53.232;8.252;2022-08-30T13:00:24;1.23;;;1.00;;
58242;SDS011;50118;53.232;8.252;2022-08-30T13:02:51;3.00;;;1.35;;
58242;SDS011;50118;53.232;8.252;2022-08-30T13:09:48;2.30;;;0.88;;
58242;SDS011;50118;53.232;8.252;2022-08-30T13:12:29;2.35;;;1.10;;
58242;SDS011;50118;53.232;8.252;2022-08-30T13:15:08;1.70;;;1.00;;
58242;SDS011;50118;53.232;8.252;2022-08-30T13:17:35;3.75;;;1.17;;
58242;SDS011;50118;53.232;8.252;2022-08-30T13:20:02;1.10;;;1.00;;
58242;SDS011;50118;53.232;8.252;2022-08-30T13:22:30;2.15;;;1.00;;
58242;SDS011;50118;53.232;8.252;2022-08-30T13:24:56;1.88;;;1.20;;
58242;SDS011;50118;53.232;8.252;2022-08-30T13:27:22;1.48;;;0.95;;
58242;SDS011;50118;53.232;8.252;2022-08-30T13:29:48;1.60;;;1.23;;
58242;SDS011;50118;53.232;8.252;2022-08-30T13:32:14;4.35;;;1.30;;
58242;SDS011;50118;53.232;8.252;2022-08-30T13:34:41;1.52;;;1.17;;
58242;SDS011;50118;53.232;8.252;2022-08-30T13:37:08;2.35;;;1.35;;
58242;SDS011;50118;53.232;8.252;2022-08-30T13:39:37;1.20;;;1.10;;
58242;SDS011;50118;53.232;8.252;2022-08-30T13:42:02;2.08;;;1.00;;
58242;SDS011;50118;53.232;8.252;2022-08-30T13:44:28;1.88;;;1.10;;
58242;SDS011;50118;53.232;8.252;2022-08-30T13:46:54;2.10;;;1.10;;
58242;SDS011;50118;53.232;8.252;2022-08-30T13:49:24;2.55;;;1.20;;
58242;SDS011;50118;53.232;8.252;2022-08-30T13:52:09;2.15;;;1.20;;
58242;SDS011;50118;53.232;8.252;2022-08-30T13:54:36;1.50;;;1.20;;
58242;SDS011;50118;53.232;8.252;2022-08-30T13:57:01;2.08;;;1.20;;
58242;SDS011;50118;53.232;8.252;2022-08-30T13:59:27;2.28;;;1.30;;
58242;SDS011;50118;53.232;8.252;2022-08-30T14:01:57;2.33;;;1.02;;
58242;SDS011;50118;53.232;8.252;2022-08-30T14:04:23;3.03;;;1.02;;
58242;SDS011;50118;53.232;8.252;2022-08-30T14:06:51;2.03;;;1.02;;
58242;SDS011;50118;53.232;8.252;2022-08-30T14:09:16;1.77;;;1.00;;
58242;SDS011;50118;53.232;8.252;2022-08-30T14:11:44;1.23;;;1.02;;
58242;SDS011;50118;53.232;8.252;2022-08-30T14:14:10;2.10;;;0.90;;
58242;SDS011;50118;53.232;8.252;2022-08-30T14:16:37;2.13;;;1.10;;
58242;SDS011;50118;53.232;8.252;2022-08-30T14:19:05;1.92;;;1.00;;
58242;SDS011;50118;53.232;8.252;2022-08-30T14:21:31;3.30;;;1.20;;
58242;SDS011;50118;53.232;8.252;2022-08-30T14:23:57;1.90;;;1.05;;
58242;SDS011;50118;53.232;8.252;2022-08-30T14:26:40;2.00;;;1.20;;
58242;SDS011;50118;53.232;8.252;2022-08-30T14:29:13;1.25;;;1.00;;
58242;SDS011;50118;53.232;8.252;2022-08-30T14:31:41;2.00;;;1.00;;
58242;SDS011;50118;53.232;8.252;2022-08-30T14:34:07;2.03;;;1.15;;
58242;SDS011;50118;53.232;8.252;2022-08-30T14:36:34;2.35;;;1.10;;
58242;SDS011;50118;53.232;8.252;2022-08-30T14:39:02;1.75;;;1.10;;
58242;SDS011;50118;53.232;8.252;2022-08-30T14:41:30;1.40;;;0.95;;
58242;SDS011;50118;53.232;8.252;2022-08-30T14:43:56;1.45;;;0.90;;
58242;SDS011;50118;53.232;8.252;2022-08-30T14:46:21;2.45;;;1.60;;
58242;SDS011;50118;53.232;8.252;2022-08-30T14:48:53;2.17;;;1.00;;
58242;SDS011;50118;53.232;8.252;2022-08-30T14:51:19;1.30;;;0.95;;
58242;SDS011;50118;53.232;8.252;2022-08-30T14:53:46;1.55;;;1.10;;
58242;SDS011;50118;53.232;8.252;2022-08-30T14:56:14;1.10;;;1.00;;
58242;SDS011;50118;53.232;8.252;2022-08-30T14:58:41;1.80;;;1.00;;
58242;SDS011;50118;53.232;8.252;2022-08-30T15:01:07;1.08;;;0.90;;
58242;SDS011;50118;53.232;8.252;2022-08-30T15:03:34;1.00;;;1.00;;
58242;SDS011;50118;53.232;8.252;2022-08-30T15:06:01;1.52;;;1.40;;
58242;SDS011;50118;53.232;8.252;2022-08-30T15:08:27;2.42;;;1.20;;
58242;SDS011;50118;53.232;8.252;2022-08-30T15:10:52;2.95;;;1.60;;
58242;SDS011;50118;53.232;8.252;2022-08-30T15:13:17;1.80;;;1.23;;
58242;SDS011;50118;53.232;8.252;2022-08-30T15:15:43;1.38;;;1.15;;
58242;SDS011;50118;53.232;8.252;2022-08-30T15:18:08;2.30;;;1.25;;
58242;SDS011;50118;53.232;8.252;2022-08-30T15:20:34;1.98;;;1.30;;
58242;SDS011;50118;53.232;8.252;2022-08-30T15:23:04;2.60;;;1.30;;
58242;SDS011;50118;53.232;8.252;2022-08-30T15:25:29;1.73;;;1.10;;
58242;SDS011;50118;53.232;8.252;2022-08-30T15:27:55;1.88;;;1.10;;
58242;SDS011;50118;53.232;8.252;2022-08-30T15:30:20;2.63;;;1.35;;
58242;SDS011;50118;53.232;8.252;2022-08-30T15:32:46;1.63;;;1.20;;
58242;SDS011;50118;53.232;8.252;2022-08-30T15:35:32;1.90;;;1.38;;
58242;SDS011;50118;53.232;8.252;2022-08-30T15:37:57;3.22;;;1.30;;
58242;SDS011;50118;53.232;8.252;2022-08-30T15:40:23;5.28;;;1.50;;
58242;SDS011;50118;53.232;8.252;2022-08-30T15:42:52;2.75;;;1.40;;
58242;SDS011;50118;53.232;8.252;2022-08-30T15:45:17;3.28;;;1.50;;
58242;SDS011;50118;53.232;8.252;2022-08-30T15:47:43;2.35;;;1.20;;
58242;SDS011;50118;53.232;8.252;2022-08-30T15:50:08;5.70;;;1.40;;
58242;SDS011;50118;53.232;8.252;2022-08-30T15:52:34;2.75;;;1.50;;
58242;SDS011;50118;53.232;8.252;2022-08-30T15:55:00;1.42;;;1.33;;
58242;SDS011;50118;53.232;8.252;2022-08-30T15:57:25;2.25;;;1.38;;
58242;SDS011;50118;53.232;8.252;2022-08-30T15:59:51;1.88;;;1.20;;
58242;SDS011;50118;53.232;8.252;2022-08-30T16:02:18;2.05;;;1.25;;
58242;SDS011;50118;53.232;8.252;2022-08-30T16:04:44;1.77;;;1.30;;
58242;SDS011;50118;53.232;8.252;2022-08-30T16:07:10;4.40;;;1.40;;
58242;SDS011;50118;53.232;8.252;2022-08-30T16:09:35;2.42;;;1.40;;
58242;SDS011;50118;53.232;8.252;2022-08-30T16:12:02;3.15;;;1.48;;
58242;SDS011;50118;53.232;8.252;2022-08-30T16:14:29;4.07;;;1.50;;
58242;SDS011;50118;53.232;8.252;2022-08-30T16:16:55;3.72;;;1.50;;
58242;SDS011;50118;53.232;8.252;2022-08-30T16:19:30;2.80;;;1.50;;
58242;SDS011;50118;53.232;8.252;2022-08-30T16:21:56;2.85;;;1.50;;
58242;SDS011;50118;53.232;8.252;2022-08-30T16:24:30;2.38;;;1.30;;
58242;SDS011;50118;53.232;8.252;2022-08-30T16:26:56;4.15;;;1.60;;
58242;SDS011;50118;53.232;8.252;2022-08-30T16:32:59;2.00;;;1.55;;
58242;SDS011;50118;53.232;8.252;2022-08-30T16:35:25;5.70;;;1.70;;
58242;SDS011;50118;53.232;8.252;2022-08-30T16:37:50;3.88;;;1.45;;
58242;SDS011;50118;53.232;8.252;2022-08-30T16:40:16;2.03;;;1.40;;
58242;SDS011;50118;53.232;8.252;2022-08-30T16:42:41;2.17;;;1.30;;
58242;SDS011;50118;53.232;8.252;2022-08-30T16:45:07;3.97;;;1.70;;
58242;SDS011;50118;53.232;8.252;2022-08-30T16:47:32;2.63;;;1.70;;
58242;SDS011;50118;53.232;8.252;2022-08-30T16:49:59;4.43;;;1.55;;
58242;SDS011;50118;53.232;8.252;2022-08-30T16:52:24;4.05;;;1.50;;
58242;SDS011;50118;53.232;8.252;2022-08-30T16:54:50;3.28;;;1.40;;
58242;SDS011;50118;53.232;8.252;2022-08-30T16:57:16;3.83;;;1.60;;
58242;SDS011;50118;53.232;8.252;2022-08-30T16:59:45;2.42;;;1.50;;
58242;SDS011;50118;53.232;8.252;2022-08-30T17:02:10;2.53;;;1.40;;
58242;SDS011;50118;53.232;8.252;2022-08-30T17:04:36;2.95;;;1.48;;
58242;SDS011;50118;53.232;8.252;2022-08-30T17:07:02;3.30;;;1.63;;
58242;SDS011;50118;53.232;8.252;2022-08-30T17:09:27;1.90;;;1.45;;
58242;SDS011;50118;53.232;8.252;2022-08-30T17:15:08;2.78;;;1.40;;
58242;SDS011;50118;53.232;8.252;2022-08-30T17:17:34;2.92;;;1.58;;
58242;SDS011;50118;53.232;8.252;2022-08-30T17:20:00;3.15;;;1.58;;
58242;SDS011;50118;53.232;8.252;2022-08-30T17:22:41;2.53;;;1.55;;
58242;SDS011;50118;53.232;8.252;2022-08-30T17:25:09;3.70;;;1.58;;
58242;SDS011;50118;53.232;8.252;2022-08-30T17:27:35;3.63;;;1.63;;
58242;SDS011;50118;53.232;8.252;2022-08-30T17:30:04;3.40;;;1.42;;
58242;SDS011;50118;53.232;8.252;2022-08-30T17:33:13;2.38;;;1.70;;
58242;SDS011;50118;53.232;8.252;2022-08-30T17:35:20;3.13;;;1.60;;
58242;SDS011;50118;53.232;8.252;2022-08-30T17:37:54;2.08;;;1.30;;
58242;SDS011;50118;53.232;8.252;2022-08-30T17:40:20;3.00;;;1.50;;
58242;SDS011;50118;53.232;8.252;2022-08-30T17:42:46;3.17;;;1.50;;
58242;SDS011;50118;53.232;8.252;2022-08-30T17:45:24;2.97;;;1.50;;
58242;SDS011;50118;53.232;8.252;2022-08-30T17:47:50;3.35;;;1.60;;